Bray, Oklahoma
Current Conditions -  °F | °C
As of 5:55 PM on Saturday 27 Dec 2014 (Local Time) from KDUC Reporting Station
Clear Clear  
Wind Chill: -1°   Ceiling: Unl
Heat Index:   Visibility: NA
Dew Point: -3°   Wind: 5mph
Humidity: 75%   Direction: 340°NNW
Pressure: 30.3"   Gusts: NA
Location:  34.61°N, 97.82°W
Report Text: KDUC 272355Z AUTO 34004KT CLR 01/M03 A3030 RMK AO2 PWINO
Loading
Personal Weather Stations






























Interactive Weather Map New forecast layout! Learn more

10-Day Weather Forecast

Advertisements
Track Severe Weather on mobile